Time;durP1;ratioP1;P1;durP2;ratioP2;P2;SDS_P1;SDS_P2;PMS_P1;PMS_P2;Temp;Humidity;BMP_temperature;BMP_pressure;BME280_temperature;BME280_humidity;BME280_pressure;Samples;Min_cycle;Max_cycle;Signal;HPM_P1;HPM_P2
2021/05/25 00:01:45;;;;;;;;;;;;;;;15.12;100.00;100168.78;5070867;28;19935;-70
2021/05/25 00:04:11;;;;;;;;;;;;;;;15.14;100.00;100160.41;5070898;28;20022;-68
2021/05/25 00:06:37;;;;;;;;;;;;;;;15.13;100.00;100166.91;5070694;28;19928;-69
2021/05/25 00:09:04;;;;;;;;;;;;;;;15.09;100.00;100171.84;5071040;28;20019;-69
2021/05/25 00:11:30;;;;;;;;;;;;;;;15.07;100.00;100176.63;5070821;28;19935;-70
2021/05/25 00:13:56;;;;;;;;;;;;;;;15.01;100.00;100183.63;5070633;28;19967;-69
2021/05/25 00:16:22;;;;;;;;;;;;;;;14.93;100.00;100185.50;5070717;28;19924;-68
2021/05/25 00:18:48;;;;;;;;;;;;;;;14.84;100.00;100187.31;5070834;28;19981;-69
2021/05/25 00:21:13;;;;;;;;;;;;;;;14.73;100.00;100186.59;5070710;28;20053;-70
2021/05/25 00:23:39;;;;;;;;;;;;;;;14.68;100.00;100196.31;5070684;28;19975;-68
2021/05/25 00:26:05;;;;;;;;;;;;;;;14.63;100.00;100198.66;5071051;28;19951;-69
2021/05/25 00:28:32;;;;;;;;;;;;;;;14.53;100.00;100205.09;5052460;28;20024;-69
2021/05/25 00:30:58;;;;;;;;;;;;;;;14.45;100.00;100204.22;5071562;28;19924;-69
2021/05/25 00:33:23;;;;;;;;;;;;;;;14.38;100.00;100204.00;5074039;28;19936;-69
2021/05/25 00:35:51;;;;;;;;;;;;;;;14.36;100.00;100206.91;5074395;28;19932;-69
2021/05/25 00:38:16;;;;;;;;;;;;;;;14.36;100.00;100214.22;5074531;28;19925;-69
2021/05/25 00:40:42;;;;;;;;;;;;;;;14.35;100.00;100209.75;5071518;28;19936;-70
2021/05/25 00:43:08;;;;;;;;;;;;;;;14.35;100.00;100215.22;5074445;28;20433;-69
2021/05/25 00:45:35;;;;;;;;;;;;;;;14.40;100.00;100208.28;5074297;28;19928;-69
2021/05/25 00:48:00;;;;;;;;;;;;;;;14.42;100.00;100213.56;5074583;28;19932;-68
2021/05/25 00:50:28;;;;;;;;;;;;;;;14.51;100.00;100217.19;5056009;28;19924;-68
2021/05/25 00:52:54;;;;;;;;;;;;;;;14.59;100.00;100221.84;5074307;28;19997;-69
2021/05/25 00:55:22;;;;;;;;;;;;;;;14.61;100.00;100226.13;5056332;28;20019;-68
2021/05/25 00:57:48;;;;;;;;;;;;;;;14.54;100.00;100225.91;5073992;28;19928;-70
2021/05/25 01:00:15;;;;;;;;;;;;;;;14.56;100.00;100228.50;5074314;28;19928;-68
2021/05/25 01:02:42;;;;;;;;;;;;;;;14.54;100.00;100236.84;5073858;28;20396;-68
2021/05/25 01:05:09;;;;;;;;;;;;;;;14.49;100.00;100239.19;5074325;28;19940;-68
2021/05/25 01:07:35;;;;;;;;;;;;;;;14.43;100.00;100237.13;5055794;28;19974;-68
2021/05/25 01:10:01;;;;;;;;;;;;;;;14.29;100.00;100252.22;5073552;28;19924;-68
2021/05/25 01:12:30;;;;;;;;;;;;;;;14.14;100.00;100251.97;5073959;28;19924;-68
2021/05/25 01:15:00;;;;;;;;;;;;;;;13.97;100.00;100261.03;5073634;28;20011;-68
2021/05/25 01:17:26;;;;;;;;;;;;;;;13.73;100.00;100260.69;5073886;28;19993;-68
2021/05/25 01:19:52;;;;;;;;;;;;;;;13.55;100.00;100270.72;5073619;28;20290;-68
2021/05/25 01:22:19;;;;;;;;;;;;;;;13.39;100.00;100268.69;5073915;28;19940;-68
2021/05/25 01:24:45;;;;;;;;;;;;;;;13.25;100.00;100278.19;5073560;28;19929;-68
2021/05/25 01:27:10;;;;;;;;;;;;;;;13.15;100.00;100282.88;5073351;28;20014;-69
2021/05/25 01:29:39;;;;;;;;;;;;;;;13.05;100.00;100272.88;5073555;28;20416;-68
2021/05/25 01:32:05;;;;;;;;;;;;;;;12.96;100.00;100271.06;5073454;28;20347;-68
2021/05/25 01:34:31;;;;;;;;;;;;;;;12.85;100.00;100263.06;5073462;28;19970;-68
2021/05/25 01:36:57;;;;;;;;;;;;;;;12.76;100.00;100250.38;5073437;28;19925;-68
2021/05/25 01:39:23;;;;;;;;;;;;;;;12.66;100.00;100250.41;5073497;28;20198;-68
2021/05/25 01:41:51;;;;;;;;;;;;;;;12.55;100.00;100260.47;5073015;28;19935;-68
2021/05/25 01:44:17;;;;;;;;;;;;;;;12.44;100.00;100257.94;5072664;28;20304;-68
2021/05/25 01:46:43;;;;;;;;;;;;;;;12.36;100.00;100255.97;5073138;28;19932;-68
2021/05/25 01:49:09;;;;;;;;;;;;;;;12.26;100.00;100255.13;5073103;28;19932;-68
2021/05/25 01:51:35;;;;;;;;;;;;;;;12.21;100.00;100247.41;5073328;28;19924;-68
2021/05/25 01:54:01;;;;;;;;;;;;;;;12.17;100.00;100261.44;5073145;28;20402;-68
2021/05/25 01:56:27;;;;;;;;;;;;;;;12.14;100.00;100265.31;5072937;28;19925;-68
2021/05/25 01:58:53;;;;;;;;;;;;;;;12.13;100.00;100258.19;5073294;28;19935;-68
2021/05/25 02:01:19;;;;;;;;;;;;;;;12.11;100.00;100265.63;5073267;28;20047;-68
2021/05/25 02:03:45;;;;;;;;;;;;;;;12.07;100.00;100256.03;5073031;28;19925;-68
2021/05/25 02:06:11;;;;;;;;;;;;;;;12.02;100.00;100264.63;5073239;28;19932;-69
2021/05/25 02:08:37;;;;;;;;;;;;;;;11.99;100.00;100274.94;5072686;28;19956;-68
2021/05/25 02:11:04;;;;;;;;;;;;;;;11.89;100.00;100273.06;5072873;28;20383;-68
2021/05/25 02:13:31;;;;;;;;;;;;;;;11.87;100.00;100280.50;5054461;28;19925;-68
2021/05/25 02:15:58;;;;;;;;;;;;;;;11.82;100.00;100274.63;5073602;28;20011;-68
2021/05/25 02:18:24;;;;;;;;;;;;;;;11.82;100.00;100273.78;5054758;28;20461;-68
2021/05/25 02:20:51;;;;;;;;;;;;;;;11.80;100.00;100275.75;5054863;28;19936;-68
2021/05/25 02:23:17;;;;;;;;;;;;;;;11.74;100.00;100271.75;5072865;28;19924;-69
2021/05/25 02:25:44;;;;;;;;;;;;;;;11.69;100.00;100274.06;5072081;28;19982;-69
2021/05/25 02:28:10;;;;;;;;;;;;;;;11.64;100.00;100273.66;5072716;28;20342;-69
2021/05/25 02:30:37;;;;;;;;;;;;;;;11.61;100.00;100268.47;5054418;28;19924;-69
2021/05/25 02:33:05;;;;;;;;;;;;;;;11.57;100.00;100278.75;5072449;28;19935;-68
2021/05/25 02:35:31;;;;;;;;;;;;;;;11.51;100.00;100273.91;5072421;28;20039;-68
2021/05/25 02:37:57;;;;;;;;;;;;;;;11.44;100.00;100270.91;5072165;28;19931;-68
2021/05/25 02:40:23;;;;;;;;;;;;;;;11.39;100.00;100265.88;5072370;28;19924;-69
2021/05/25 02:42:49;;;;;;;;;;;;;;;11.35;100.00;100256.28;5071997;28;20289;-69
2021/05/25 02:45:15;;;;;;;;;;;;;;;11.33;100.00;100252.88;5072075;28;19932;-69
2021/05/25 02:47:42;;;;;;;;;;;;;;;11.33;100.00;100247.44;5072195;28;19924;-68
2021/05/25 02:50:09;;;;;;;;;;;;;;;11.32;100.00;100255.75;5068705;28;19924;-69
2021/05/25 02:52:35;;;;;;;;;;;;;;;11.29;100.00;100258.72;5072267;28;19935;-69
2021/05/25 02:55:01;;;;;;;;;;;;;;;11.27;100.00;100256.16;5071456;28;19924;-69
2021/05/25 02:57:27;;;;;;;;;;;;;;;11.28;100.00;100260.59;5072088;28;19931;-68
2021/05/25 02:59:53;;;;;;;;;;;;;;;11.27;100.00;100250.72;5071463;28;20027;-68
2021/05/25 03:02:18;;;;;;;;;;;;;;;11.25;100.00;100258.16;5071749;28;19978;-69
2021/05/25 03:04:45;;;;;;;;;;;;;;;11.23;100.00;100258.28;5071560;28;19932;-69
2021/05/25 03:07:11;;;;;;;;;;;;;;;11.27;100.00;100255.31;5071546;28;19929;-69
2021/05/25 03:09:37;;;;;;;;;;;;;;;11.26;100.00;100253.56;5071660;28;20351;-69
2021/05/25 03:12:03;;;;;;;;;;;;;;;11.27;100.00;100250.72;5071426;28;20406;-69
2021/05/25 03:14:29;;;;;;;;;;;;;;;11.26;100.00;100250.84;5071341;28;19925;-69
2021/05/25 03:16:55;;;;;;;;;;;;;;;11.24;100.00;100248.28;5071389;28;19924;-69
2021/05/25 03:19:20;;;;;;;;;;;;;;;11.21;100.00;100254.84;5071121;28;19931;-69
2021/05/25 03:21:47;;;;;;;;;;;;;;;11.22;100.00;100256.59;5071491;28;20311;-69
2021/05/25 03:24:13;;;;;;;;;;;;;;;11.25;100.00;100258.16;5053243;28;19924;-68
2021/05/25 03:26:39;;;;;;;;;;;;;;;11.25;100.00;100257.28;5071480;28;19931;-68
2021/05/25 03:29:05;;;;;;;;;;;;;;;11.27;100.00;100260.72;5053545;28;19932;-68
2021/05/25 03:31:30;;;;;;;;;;;;;;;11.26;100.00;100251.72;5071201;28;19924;-68
2021/05/25 03:33:56;;;;;;;;;;;;;;;11.29;100.00;100256.00;5071202;28;19950;-68
2021/05/25 03:36:22;;;;;;;;;;;;;;;11.32;100.00;100256.59;5070886;28;20011;-68
2021/05/25 03:38:49;;;;;;;;;;;;;;;11.31;100.00;100245.88;5071163;28;19928;-68
2021/05/25 03:41:15;;;;;;;;;;;;;;;11.36;100.00;100246.31;5071167;28;19928;-68
2021/05/25 03:43:40;;;;;;;;;;;;;;;11.33;100.00;100258.31;5071000;28;19931;-68
2021/05/25 03:46:06;;;;;;;;;;;;;;;11.37;100.00;100253.44;5071244;28;19925;-68
2021/05/25 03:48:32;;;;;;;;;;;;;;;11.37;100.00;100261.59;5070759;28;20019;-68
2021/05/25 03:50:58;;;;;;;;;;;;;;;11.37;100.00;100256.16;5071218;28;19977;-68
2021/05/25 03:53:25;;;;;;;;;;;;;;;11.38;100.00;100257.88;5052926;28;20442;-69
2021/05/25 03:55:53;;;;;;;;;;;;;;;11.40;100.00;100247.72;5070879;28;19967;-69
2021/05/25 04:01:04;;;;;;;;;;;;;;;11.39;100.00;100252.28;5070883;28;19925;-68
2021/05/25 04:03:30;;;;;;;;;;;;;;;11.40;100.00;100258.59;5063408;28;19967;-68
2021/05/25 04:05:55;;;;;;;;;;;;;;;11.42;100.00;100256.59;5049983;28;19932;-68
2021/05/25 04:08:22;;;;;;;;;;;;;;;11.43;100.00;100254.75;5055145;28;19925;-69
2021/05/25 04:10:48;;;;;;;;;;;;;;;11.45;100.00;100250.00;5061591;28;20343;-68
2021/05/25 04:13:15;;;;;;;;;;;;;;;11.45;100.00;100261.75;5050309;28;19979;-68
2021/05/25 04:15:42;;;;;;;;;;;;;;;11.44;100.00;100270.03;5051822;28;20327;-68
2021/05/25 04:18:08;;;;;;;;;;;;;;;11.44;100.00;100265.47;5050444;28;19924;-68
2021/05/25 04:20:34;;;;;;;;;;;;;;;11.45;100.00;100264.47;5052820;28;19986;-69
2021/05/25 04:23:00;;;;;;;;;;;;;;;11.49;100.00;100267.75;5068001;28;19967;-69
2021/05/25 04:25:26;;;;;;;;;;;;;;;11.59;100.00;100273.22;5068892;28;19935;-73
2021/05/25 04:27:52;;;;;;;;;;;;;;;11.68;100.00;100267.78;5070726;28;19947;-73
2021/05/25 04:30:19;;;;;;;;;;;;;;;11.73;100.00;100270.03;5043361;28;19931;-73
2021/05/25 04:32:46;;;;;;;;;;;;;;;11.76;100.00;100269.78;5052718;28;19928;-73
2021/05/25 04:35:12;;;;;;;;;;;;;;;11.78;100.00;100265.03;5050384;28;19928;-73
2021/05/25 04:37:38;;;;;;;;;;;;;;;11.80;100.00;100257.59;5056101;28;19929;-73
2021/05/25 04:40:04;;;;;;;;;;;;;;;11.83;100.00;100270.91;5057582;28;19924;-73
2021/05/25 04:42:30;;;;;;;;;;;;;;;11.81;100.00;100266.63;5063487;28;20011;-72
2021/05/25 04:44:56;;;;;;;;;;;;;;;11.78;100.00;100270.47;5062684;28;19932;-73
2021/05/25 04:47:23;;;;;;;;;;;;;;;11.76;100.00;100269.78;5052101;28;19967;-72
2021/05/25 04:49:49;;;;;;;;;;;;;;;11.73;100.00;100272.75;5068475;28;19929;-73
2021/05/25 04:52:14;;;;;;;;;;;;;;;11.72;100.00;100273.78;5068694;28;20441;-72
2021/05/25 04:54:40;;;;;;;;;;;;;;;11.71;100.00;100286.50;5069584;28;20375;-73
2021/05/25 04:57:06;;;;;;;;;;;;;;;11.73;100.00;100292.66;5052892;28;20356;-73
2021/05/25 04:59:32;;;;;;;;;;;;;;;11.75;100.00;100284.38;5033272;28;20136;-73
2021/05/25 05:01:58;;;;;;;;;;;;;;;11.81;100.00;100285.66;5049943;28;20247;-73
2021/05/25 05:04:25;;;;;;;;;;;;;;;11.87;100.00;100287.81;5057718;28;20019;-73
2021/05/25 05:06:51;;;;;;;;;;;;;;;11.93;100.00;100280.91;5051989;28;19948;-73
2021/05/25 05:09:17;;;;;;;;;;;;;;;12.06;100.00;100276.06;5041714;28;19924;-72
2021/05/25 05:11:43;;;;;;;;;;;;;;;12.19;100.00;100282.06;5060291;28;19928;-72
2021/05/25 05:14:08;;;;;;;;;;;;;;;12.25;100.00;100283.34;5069575;28;20341;-72
2021/05/25 05:16:34;;;;;;;;;;;;;;;12.40;100.00;100275.59;5065556;28;20434;-73
2021/05/25 05:19:00;;;;;;;;;;;;;;;12.56;100.00;100277.69;5073450;28;19978;-72
2021/05/25 05:21:27;;;;;;;;;;;;;;;12.69;100.00;100277.34;5073792;28;19928;-73
2021/05/25 05:23:54;;;;;;;;;;;;;;;12.77;100.00;100269.28;5073531;28;19924;-73
2021/05/25 05:26:20;;;;;;;;;;;;;;;12.93;100.00;100265.91;5070299;28;19933;-74
2021/05/25 05:28:46;;;;;;;;;;;;;;;13.03;100.00;100269.44;5063987;28;19925;-73
2021/05/25 05:31:11;;;;;;;;;;;;;;;13.04;100.00;100271.16;5053308;28;19936;-73
2021/05/25 05:33:37;;;;;;;;;;;;;;;12.94;100.00;100259.44;5052306;28;19931;-72
2021/05/25 05:36:03;;;;;;;;;;;;;;;12.82;100.00;100260.66;5055208;28;19928;-72
2021/05/25 05:38:30;;;;;;;;;;;;;;;12.67;100.00;100269.31;5093338;28;19924;-73
2021/05/25 05:41:03;;;;;;;;;;;;;;;12.51;100.00;100260.94;5093351;28;19931;-73
2021/05/25 05:43:29;;;;;;;;;;;;;;;12.43;100.00;100274.44;5093180;28;19931;-73
2021/05/25 05:45:56;;;;;;;;;;;;;;;12.39;100.00;100282.03;5093453;28;19978;-73
2021/05/25 05:48:22;;;;;;;;;;;;;;;12.33;100.00;100283.47;5093420;28;20040;-74
2021/05/25 05:50:47;;;;;;;;;;;;;;;12.28;100.00;100285.78;5093210;28;20328;-73
2021/05/25 05:53:13;;;;;;;;;;;;;;;12.23;100.00;100285.34;5093114;28;20382;-73
2021/05/25 05:55:40;;;;;;;;;;;;;;;12.16;100.00;100293.25;5093114;28;19928;-74
2021/05/25 05:58:07;;;;;;;;;;;;;;;12.10;100.00;100301.97;5092659;28;19931;-74
2021/05/25 06:00:32;;;;;;;;;;;;;;;12.08;100.00;100308.56;5092511;28;19924;-73
2021/05/25 06:03:00;;;;;;;;;;;;;;;12.10;100.00;100303.84;5093047;28;20035;-73
2021/05/25 06:05:26;;;;;;;;;;;;;;;12.07;100.00;100313.16;5093082;28;19931;-73
2021/05/25 06:07:51;;;;;;;;;;;;;;;12.07;100.00;100309.59;5092979;28;19924;-73
2021/05/25 06:10:18;;;;;;;;;;;;;;;12.10;100.00;100307.41;5074990;28;20065;-73
2021/05/25 06:12:44;;;;;;;;;;;;;;;12.08;100.00;100303.13;5092698;28;20376;-74
2021/05/25 06:15:11;;;;;;;;;;;;;;;12.02;100.00;100302.69;5092535;28;19924;-73
2021/05/25 06:17:38;;;;;;;;;;;;;;;12.00;100.00;100295.72;5092723;28;20371;-73
2021/05/25 06:20:04;;;;;;;;;;;;;;;11.89;100.00;100294.81;5092584;28;19978;-73
2021/05/25 06:22:30;;;;;;;;;;;;;;;11.88;100.00;100281.38;5092597;28;19928;-74
2021/05/25 06:24:56;;;;;;;;;;;;;;;11.85;100.00;100296.13;5092549;28;19944;-73
2021/05/25 06:27:22;;;;;;;;;;;;;;;11.86;100.00;100303.25;5092677;28;19928;-73
2021/05/25 06:29:48;;;;;;;;;;;;;;;11.88;100.00;100306.69;5092154;28;20002;-74
2021/05/25 06:32:14;;;;;;;;;;;;;;;11.88;100.00;100303.13;5092489;28;20473;-74
2021/05/25 06:34:40;;;;;;;;;;;;;;;11.89;100.00;100300.25;5074334;28;19932;-73
2021/05/25 06:37:06;;;;;;;;;;;;;;;11.88;100.00;100293.09;5074482;28;19932;-73
2021/05/25 06:39:32;;;;;;;;;;;;;;;11.88;100.00;100311.28;5084642;28;19932;-76
2021/05/25 06:41:58;;;;;;;;;;;;;;;11.89;100.00;100305.69;5085176;28;19931;-74
2021/05/25 06:44:23;;;;;;;;;;;;;;;11.91;100.00;100318.31;5083500;28;19924;-73
2021/05/25 06:46:50;;;;;;;;;;;;;;;11.94;100.00;100324.28;5054158;28;19929;-73
2021/05/25 06:49:16;;;;;;;;;;;;;;;11.95;100.00;100334.22;5067470;28;19924;-73
2021/05/25 06:51:42;;;;;;;;;;;;;;;11.92;100.00;100333.59;5071472;28;19935;-74
2021/05/25 06:54:08;;;;;;;;;;;;;;;11.89;100.00;100327.47;5059679;28;20015;-74
2021/05/25 06:56:34;;;;;;;;;;;;;;;11.85;100.00;100320.59;5067559;28;19942;-74
2021/05/25 06:58:59;;;;;;;;;;;;;;;11.80;100.00;100316.56;5060142;28;19943;-74
2021/05/25 07:01:25;;;;;;;;;;;;;;;11.79;100.00;100321.16;5053768;28;19928;-74
2021/05/25 07:03:53;;;;;;;;;;;;;;;11.82;100.00;100329.00;5072067;28;19970;-75
2021/05/25 07:06:20;;;;;;;;;;;;;;;11.85;100.00;100317.00;5053418;28;19925;-74
2021/05/25 07:08:46;;;;;;;;;;;;;;;11.91;100.00;100323.75;5061392;28;19975;-74
2021/05/25 07:11:11;;;;;;;;;;;;;;;11.89;100.00;100324.75;5059626;28;19924;-75
2021/05/25 07:13:37;;;;;;;;;;;;;;;11.94;100.00;100337.88;5082342;28;20379;-74
2021/05/25 07:16:03;;;;;;;;;;;;;;;11.97;100.00;100331.34;5046037;28;20304;-74
2021/05/25 07:18:29;;;;;;;;;;;;;;;11.98;100.00;100314.88;5051558;28;19924;-75
2021/05/25 07:20:56;;;;;;;;;;;;;;;12.06;100.00;100330.47;5056459;28;19931;-73
2021/05/25 07:23:22;;;;;;;;;;;;;;;12.14;100.00;100327.91;5070915;28;20377;-75
2021/05/25 07:25:48;;;;;;;;;;;;;;;12.28;100.00;100328.44;5053800;28;19939;-75
2021/05/25 07:28:14;;;;;;;;;;;;;;;12.46;100.00;100332.16;5051108;28;20450;-75
2021/05/25 07:30:41;;;;;;;;;;;;;;;12.43;100.00;100310.66;5054478;28;19932;-74
2021/05/25 07:33:07;;;;;;;;;;;;;;;12.38;100.00;100311.09;5071048;28;19931;-75
2021/05/25 07:35:32;;;;;;;;;;;;;;;12.39;100.00;100320.97;5057220;28;19924;-74
2021/05/25 07:37:59;;;;;;;;;;;;;;;12.39;100.00;100318.25;5051310;28;20380;-74
2021/05/25 07:40:25;;;;;;;;;;;;;;;12.47;100.00;100322.13;5061935;28;19951;-73
2021/05/25 07:42:51;;;;;;;;;;;;;;;12.60;100.00;100349.03;5082976;28;20379;-74
2021/05/25 07:45:17;;;;;;;;;;;;;;;12.67;100.00;100353.72;5077447;28;19950;-74
2021/05/25 07:47:43;;;;;;;;;;;;;;;12.59;100.00;100352.75;5072180;28;20387;-73
2021/05/25 07:50:13;;;;;;;;;;;;;;;12.47;100.00;100342.03;5061922;28;19924;-74
2021/05/25 07:52:39;;;;;;;;;;;;;;;12.52;100.00;100339.72;5058741;28;19954;-74
2021/05/25 07:55:07;;;;;;;;;;;;;;;12.48;100.00;100335.59;5067270;28;19928;-76
2021/05/25 07:57:33;;;;;;;;;;;;;;;12.46;100.00;100337.59;5051732;28;19955;-75
2021/05/25 07:59:59;;;;;;;;;;;;;;;12.51;100.00;100346.19;5050721;28;20423;-73
2021/05/25 08:02:25;;;;;;;;;;;;;;;12.45;100.00;100356.78;5051952;28;20376;-73
2021/05/25 08:04:50;;;;;;;;;;;;;;;12.43;100.00;100356.94;5071752;28;19928;-73
2021/05/25 08:07:16;;;;;;;;;;;;;;;12.52;100.00;100355.19;5090646;28;19978;-73
2021/05/25 08:09:45;;;;;;;;;;;;;;;12.72;100.00;100350.59;5052040;28;19978;-74
2021/05/25 08:12:11;;;;;;;;;;;;;;;12.64;100.00;100359.50;5070620;28;20339;-74
2021/05/25 08:14:38;;;;;;;;;;;;;;;12.45;100.00;100357.63;5051487;28;19982;-75
2021/05/25 08:17:08;;;;;;;;;;;;;;;12.38;100.00;100378.28;5050639;28;19929;-75
2021/05/25 08:19:35;;;;;;;;;;;;;;;12.37;100.00;100379.28;5033249;28;19985;-73
2021/05/25 08:22:01;;;;;;;;;;;;;;;12.46;100.00;100372.97;5050839;28;19925;-72
2021/05/25 08:24:27;;;;;;;;;;;;;;;12.47;100.00;100366.53;5056409;28;20036;-73
2021/05/25 08:26:53;;;;;;;;;;;;;;;12.55;100.00;100372.09;5090330;28;19928;-73
2021/05/25 08:29:19;;;;;;;;;;;;;;;12.74;100.00;100375.78;5066304;28;19993;-73
2021/05/25 08:31:45;;;;;;;;;;;;;;;12.96;100.00;100371.88;5050202;28;19936;-73
2021/05/25 08:34:11;;;;;;;;;;;;;;;13.18;100.00;100369.75;5045203;28;19925;-73
2021/05/25 08:36:37;;;;;;;;;;;;;;;13.16;100.00;100363.59;5059815;28;19924;-73
2021/05/25 08:39:04;;;;;;;;;;;;;;;13.18;100.00;100375.22;5080575;28;19928;-73
2021/05/25 08:41:32;;;;;;;;;;;;;;;13.01;100.00;100383.16;5049942;28;19931;-74
2021/05/25 08:43:58;;;;;;;;;;;;;;;13.01;100.00;100358.63;5069289;28;20431;-74
2021/05/25 08:46:25;;;;;;;;;;;;;;;12.89;100.00;100371.59;5067256;28;20049;-74
2021/05/25 08:48:51;;;;;;;;;;;;;;;12.77;100.00;100367.31;5066758;28;19924;-75
2021/05/25 08:51:17;;;;;;;;;;;;;;;12.83;100.00;100372.19;5054563;28;19959;-74
2021/05/25 08:53:42;;;;;;;;;;;;;;;12.88;100.00;100377.16;5054802;28;20451;-73
2021/05/25 08:56:08;;;;;;;;;;;;;;;12.99;100.00;100382.47;5054603;28;20044;-73
2021/05/25 08:58:34;;;;;;;;;;;;;;;12.85;100.00;100389.25;5073306;28;19929;-74
2021/05/25 09:01:00;;;;;;;;;;;;;;;12.96;100.00;100393.66;5066900;28;19932;-73
2021/05/25 09:03:29;;;;;;;;;;;;;;;13.06;100.00;100405.38;5065955;28;19959;-74
2021/05/25 09:05:58;;;;;;;;;;;;;;;12.79;100.00;100387.09;5074022;28;20361;-75
2021/05/25 09:08:24;;;;;;;;;;;;;;;12.67;100.00;100397.31;5053870;28;19995;-74
2021/05/25 09:10:51;;;;;;;;;;;;;;;12.59;100.00;100390.84;5053620;28;19943;-75
2021/05/25 09:13:18;;;;;;;;;;;;;;;12.45;100.00;100387.59;5082378;28;19924;-74
2021/05/25 09:15:45;;;;;;;;;;;;;;;12.39;100.00;100391.75;5055039;28;20245;-74
2021/05/25 09:18:12;;;;;;;;;;;;;;;12.70;100.00;100393.44;5073904;28;19931;-73
2021/05/25 09:20:40;;;;;;;;;;;;;;;12.92;100.00;100399.53;5072696;28;19932;-74
2021/05/25 09:23:06;;;;;;;;;;;;;;;12.96;100.00;100404.56;5073402;28;19932;-75
2021/05/25 09:25:33;;;;;;;;;;;;;;;13.23;100.00;100395.56;5062610;28;19925;-74
2021/05/25 09:27:59;;;;;;;;;;;;;;;13.38;100.00;100400.53;5073337;28;19950;-74
2021/05/25 09:30:26;;;;;;;;;;;;;;;13.12;100.00;100395.75;5062406;28;20380;-73
2021/05/25 09:32:55;;;;;;;;;;;;;;;13.19;100.00;100396.88;5058025;28;19924;-73
2021/05/25 09:35:22;;;;;;;;;;;;;;;13.31;100.00;100393.94;5073127;28;20379;-74
2021/05/25 09:37:49;;;;;;;;;;;;;;;13.52;100.00;100391.88;5053464;28;19928;-75
2021/05/25 09:40:17;;;;;;;;;;;;;;;13.76;100.00;100368.59;5019167;28;20350;-73
2021/05/25 09:42:43;;;;;;;;;;;;;;;14.59;100.00;100374.78;5052726;28;19925;-73
2021/05/25 09:45:11;;;;;;;;;;;;;;;15.58;100.00;100376.22;5041238;28;19930;-72
2021/05/25 09:47:38;;;;;;;;;;;;;;;16.42;97.44;100372.59;5058162;28;19931;-72
2021/05/25 09:50:06;;;;;;;;;;;;;;;17.37;90.62;100366.41;5072838;28;20023;-73
2021/05/25 09:52:31;;;;;;;;;;;;;;;18.60;82.31;100364.78;5050256;28;19938;-73
2021/05/25 09:55:09;;;;;;;;;;;;;;;19.05;71.51;100365.72;5056221;28;19925;-74
2021/05/25 09:57:45;;;;;;;;;;;;;;;19.18;64.14;100369.72;5038941;28;19924;-73
2021/05/25 10:00:24;;;;;;;;;;;;;;;18.58;66.64;100364.09;5072854;28;19981;-73
2021/05/25 10:03:03;;;;;;;;;;;;;;;19.04;63.44;100369.53;5040979;28;20300;-74
2021/05/25 10:05:29;;;;;;;;;;;;;;;18.39;62.99;100370.97;5052015;28;19925;-74
2021/05/25 10:07:55;;;;;;;;;;;;;;;18.49;64.98;100365.22;5052733;28;19933;-74
2021/05/25 10:10:22;;;;;;;;;;;;;;;18.34;66.09;100360.53;5052643;28;19925;-74
2021/05/25 10:12:49;;;;;;;;;;;;;;;18.33;63.10;100360.72;5052303;28;20327;-74
2021/05/25 10:15:15;;;;;;;;;;;;;;;17.57;64.55;100361.34;5044499;28;19931;-74
2021/05/25 10:17:46;;;;;;;;;;;;;;;16.87;66.00;100358.31;5073524;28;20283;-73
2021/05/25 10:20:13;;;;;;;;;;;;;;;16.40;74.18;100356.34;5088961;28;19931;-73
2021/05/25 10:22:39;;;;;;;;;;;;;;;15.50;73.46;100357.91;5072352;28;19929;-73
2021/05/25 10:25:06;;;;;;;;;;;;;;;15.17;79.69;100370.59;5068596;28;20332;-73
2021/05/25 10:27:33;;;;;;;;;;;;;;;14.79;85.83;100380.94;5054148;28;19932;-69
2021/05/25 10:29:59;;;;;;;;;;;;;;;14.18;93.54;100400.75;5053450;28;20289;-72
2021/05/25 10:32:25;;;;;;;;;;;;;;;13.22;100.00;100409.34;5039621;28;20035;-76
2021/05/25 10:34:53;;;;;;;;;;;;;;;12.34;100.00;100409.53;5054398;28;19965;-75
2021/05/25 10:37:19;;;;;;;;;;;;;;;11.81;100.00;100414.34;5085665;28;20450;-76
2021/05/25 10:39:46;;;;;;;;;;;;;;;11.34;100.00;100433.06;5092536;28;19928;-76
2021/05/25 10:42:27;;;;;;;;;;;;;;;11.00;100.00;100436.06;5072830;28;19930;-75
2021/05/25 10:44:54;;;;;;;;;;;;;;;10.73;100.00;100429.34;5071596;28;19928;-76
2021/05/25 10:47:22;;;;;;;;;;;;;;;10.55;100.00;100437.19;5053524;28;19929;-75
2021/05/25 10:49:55;;;;;;;;;;;;;;;10.67;100.00;100438.00;5069959;28;20022;-76
2021/05/25 10:52:22;;;;;;;;;;;;;;;10.70;100.00;100445.88;5071090;28;19928;-75
2021/05/25 10:54:58;;;;;;;;;;;;;;;10.68;100.00;100450.59;5074815;28;19928;-76
2021/05/25 10:57:46;;;;;;;;;;;;;;;10.57;100.00;100484.06;5072604;28;19936;-76
2021/05/25 11:00:15;;;;;;;;;;;;;;;10.55;100.00;100492.34;5071874;28;19986;-68
2021/05/25 11:02:44;;;;;;;;;;;;;;;10.50;100.00;100488.28;5070772;28;19924;-69
2021/05/25 11:05:29;;;;;;;;;;;;;;;10.37;100.00;100485.78;5056507;28;19925;-69
2021/05/25 11:07:55;;;;;;;;;;;;;;;10.26;100.00;100489.34;5051502;28;19932;-68
2021/05/25 11:10:37;;;;;;;;;;;;;;;10.26;100.00;100483.03;5065680;28;20388;-68
2021/05/25 11:13:21;;;;;;;;;;;;;;;10.45;100.00;100480.56;5060827;28;20476;-78
2021/05/25 11:16:00;;;;;;;;;;;;;;;10.39;100.00;100475.63;5057833;28;19928;-77
2021/05/25 11:18:31;;;;;;;;;;;;;;;10.29;100.00;100471.94;5064657;28;19925;-70
2021/05/25 11:21:11;;;;;;;;;;;;;;;10.31;100.00;100488.94;5063026;28;19932;-79
2021/05/25 11:23:38;;;;;;;;;;;;;;;10.12;100.00;100471.50;5051711;28;19925;-78
2021/05/25 11:26:04;;;;;;;;;;;;;;;10.27;100.00;100473.94;5033844;28;20303;-77
2021/05/25 11:28:55;;;;;;;;;;;;;;;10.61;100.00;100471.09;5052573;28;19925;-78
2021/05/25 11:31:37;;;;;;;;;;;;;;;10.89;100.00;100469.59;5083109;28;19928;-78
2021/05/25 11:34:03;;;;;;;;;;;;;;;11.16;100.00;100468.19;5035343;28;19947;-78
2021/05/25 11:36:29;;;;;;;;;;;;;;;11.20;100.00;100464.19;5064020;28;19931;-78
2021/05/25 11:38:55;;;;;;;;;;;;;;;11.44;100.00;100460.28;5072825;28;20134;-78
2021/05/25 11:41:21;;;;;;;;;;;;;;;12.25;100.00;100443.88;5071269;28;20027;-77
2021/05/25 11:43:46;;;;;;;;;;;;;;;13.71;100.00;100437.25;5070558;28;19928;-78
2021/05/25 11:46:12;;;;;;;;;;;;;;;14.62;100.00;100435.44;5091428;28;20383;-77
2021/05/25 11:48:39;;;;;;;;;;;;;;;15.43;100.00;100433.41;5070399;28;19936;-77
2021/05/25 11:51:08;;;;;;;;;;;;;;;16.14;100.00;100420.34;5053016;28;20303;-78
2021/05/25 11:53:34;;;;;;;;;;;;;;;17.19;100.00;100410.56;5052347;28;19931;-77
2021/05/25 11:55:59;;;;;;;;;;;;;;;17.17;100.00;100420.84;5060095;28;19928;-78
2021/05/25 11:58:25;;;;;;;;;;;;;;;16.73;100.00;100411.97;5090625;28;19951;-77
2021/05/25 12:00:51;;;;;;;;;;;;;;;16.11;100.00;100419.81;5080137;28;19932;-68
2021/05/25 12:03:17;;;;;;;;;;;;;;;15.60;100.00;100411.63;5070394;28;19924;-68
2021/05/25 12:05:45;;;;;;;;;;;;;;;14.49;100.00;100418.59;5062274;28;19925;-68
2021/05/25 12:08:10;;;;;;;;;;;;;;;14.09;100.00;100417.19;5050694;28;19924;-69
2021/05/25 12:10:37;;;;;;;;;;;;;;;13.75;100.00;100424.19;5056264;28;19931;-68
2021/05/25 12:13:04;;;;;;;;;;;;;;;13.67;100.00;100416.75;5058219;28;19923;-68
2021/05/25 12:15:30;;;;;;;;;;;;;;;13.44;100.00;100424.50;5071758;28;19932;-68
2021/05/25 12:17:57;;;;;;;;;;;;;;;13.41;100.00;100416.59;5067725;28;20046;-69
2021/05/25 12:20:24;;;;;;;;;;;;;;;13.74;100.00;100414.28;5073933;28;20304;-69
2021/05/25 12:22:52;;;;;;;;;;;;;;;13.82;100.00;100416.25;5057570;28;19935;-69
2021/05/25 12:25:26;;;;;;;;;;;;;;;13.73;100.00;100410.69;5039045;28;20371;-69
2021/05/25 12:27:53;;;;;;;;;;;;;;;13.21;100.00;100419.38;5071242;28;20019;-69
2021/05/25 12:30:20;;;;;;;;;;;;;;;13.12;100.00;100419.41;5068184;28;19933;-69